createdAt,value
2017-12-20T00:00:56.356Z,49.50
2017-12-20T00:01:58.543Z,48.10
2017-12-20T00:03:50.994Z,49.60
2017-12-20T00:04:51.086Z,48.40
2017-12-20T00:06:45.678Z,51.70
2017-12-20T00:07:45.783Z,51.60
2017-12-20T00:09:39.825Z,45.30
2017-12-20T00:10:39.219Z,44.20
2017-12-20T00:12:31.793Z,43.60
2017-12-20T00:13:32.814Z,45.50
2017-12-20T00:15:26.383Z,53.40
2017-12-20T00:16:25.366Z,44.40
2017-12-20T00:18:20.540Z,43.40
2017-12-20T00:19:19.899Z,46.00
2017-12-20T00:21:12.596Z,48.60
2017-12-20T00:22:13.450Z,50.30
2017-12-20T00:24:05.951Z,46.20
2017-12-20T00:25:06.999Z,45.00
2017-12-20T00:26:59.667Z,39.00
2017-12-20T00:28:00.579Z,38.70
2017-12-20T00:29:53.306Z,41.10
2017-12-20T00:30:54.127Z,40.00
2017-12-20T00:32:47.707Z,43.60
2017-12-20T00:33:47.688Z,39.30
2017-12-20T00:35:40.158Z,39.00
2017-12-20T00:36:41.277Z,36.60
2017-12-20T00:38:34.856Z,33.90
2017-12-20T00:39:32.801Z,36.50
2017-12-20T00:41:27.496Z,35.10
2017-12-20T00:42:28.361Z,35.60
2017-12-20T00:44:22.847Z,39.00
2017-12-20T00:45:21.974Z,40.80
2017-12-20T00:47:14.564Z,40.30
2017-12-20T00:48:15.542Z,41.70
2017-12-20T00:50:08.006Z,38.60
2017-12-20T00:51:09.020Z,42.00
2017-12-20T00:53:03.183Z,38.00
2017-12-20T00:54:01.788Z,41.70
2017-12-20T00:55:56.144Z,35.20
2017-12-20T00:56:56.195Z,39.40
2017-12-20T00:58:48.885Z,38.90
2017-12-20T00:59:49.728Z,40.70
2017-12-20T01:01:42.413Z,38.10
2017-12-20T01:02:43.400Z,39.90
2017-12-20T01:04:36.815Z,37.40
2017-12-20T01:05:36.792Z,38.20
2017-12-20T01:07:29.512Z,37.40
2017-12-20T01:08:30.420Z,33.90
2017-12-20T01:10:23.868Z,37.00
2017-12-20T01:11:23.911Z,37.80
2017-12-20T01:13:16.636Z,39.90
2017-12-20T01:14:17.474Z,42.70
2017-12-20T01:16:10.175Z,39.40
2017-12-20T01:17:11.038Z,39.70
2017-12-20T01:19:03.729Z,36.10
2017-12-20T01:20:04.640Z,38.20
2017-12-20T01:21:57.391Z,38.50
2017-12-20T01:22:58.141Z,38.80
2017-12-20T01:24:51.717Z,34.80
2017-12-20T01:25:51.711Z,35.50
2017-12-20T01:27:44.369Z,40.50
2017-12-20T01:28:45.301Z,40.10
2017-12-20T01:30:37.810Z,39.40
2017-12-20T01:31:38.809Z,40.70
2017-12-20T01:33:32.411Z,42.40
2017-12-20T01:34:32.370Z,44.50
2017-12-20T01:36:25.061Z,42.00
2017-12-20T01:37:25.933Z,44.80
2017-12-20T01:39:18.629Z,41.40
2017-12-20T01:40:19.493Z,42.20
2017-12-20T01:42:13.059Z,46.70
2017-12-20T01:43:13.052Z,48.20
2017-12-20T01:45:05.479Z,50.40
2017-12-20T01:46:06.600Z,47.70
2017-12-20T01:48:01.104Z,48.50
2017-12-20T01:49:00.153Z,51.00
2017-12-20T01:50:54.329Z,47.40
2017-12-20T01:51:53.844Z,51.70
2017-12-20T01:53:46.453Z,58.10
2017-12-20T01:54:47.261Z,53.20
2017-12-20T01:56:40.883Z,56.00
2017-12-20T01:57:40.833Z,56.80
2017-12-20T01:59:34.321Z,55.20
2017-12-20T02:00:32.825Z,57.20
2017-12-20T02:02:27.957Z,62.00
2017-12-20T02:03:27.946Z,60.80
2017-12-20T02:05:20.645Z,61.30
2017-12-20T02:06:21.564Z,62.30
2017-12-20T02:08:13.934Z,58.00
2017-12-20T02:09:15.090Z,61.40
2017-12-20T02:11:07.755Z,61.50
2017-12-20T02:12:08.614Z,61.70
2017-12-20T02:14:01.158Z,66.60
2017-12-20T02:15:02.185Z,61.20
2017-12-20T02:16:54.874Z,73.70
2017-12-20T02:17:55.725Z,77.90
2017-12-20T02:19:49.110Z,74.20
2017-12-20T02:20:49.303Z,71.40
2017-12-20T02:22:41.977Z,77.70
2017-12-20T02:23:42.827Z,78.90
2017-12-20T02:25:36.428Z,75.80
2017-12-20T02:26:37.326Z,78.90
2017-12-20T02:49:57.092Z,108.50
2017-12-20T02:50:57.196Z,103.00
2017-12-20T02:52:50.682Z,122.40
2017-12-20T02:53:50.721Z,118.80
2017-12-20T02:55:43.373Z,123.30
2017-12-20T02:56:44.287Z,127.60
2017-12-20T02:58:36.810Z,133.50
2017-12-20T02:59:37.830Z,132.00
2017-12-20T03:01:29.524Z,123.20
2017-12-20T03:02:31.403Z,122.90
2017-12-20T03:04:24.937Z,121.10
2017-12-20T03:05:24.971Z,111.40
2017-12-20T03:07:17.660Z,128.40
2017-12-20T03:08:18.491Z,114.90
2017-12-20T03:10:11.179Z,117.10
2017-12-20T03:11:12.070Z,124.80
2017-12-20T03:13:04.701Z,114.00
2017-12-20T03:14:05.607Z,115.20
2017-12-20T03:15:58.199Z,113.30
2017-12-20T03:16:57.304Z,123.80
2017-12-20T03:18:51.243Z,121.40
2017-12-20T03:19:52.728Z,112.20
2017-12-20T03:21:45.383Z,127.30
2017-12-20T03:22:46.285Z,124.20
2017-12-20T03:24:39.844Z,129.30
2017-12-20T03:25:39.875Z,116.70
2017-12-20T03:27:32.553Z,118.70
2017-12-20T03:28:33.419Z,120.50
2017-12-20T03:30:27.037Z,127.10
2017-12-20T03:31:26.400Z,126.10
2017-12-20T03:33:19.612Z,115.40
2017-12-20T03:34:19.372Z,117.00
2017-12-20T03:36:14.052Z,128.60
2017-12-20T03:37:14.069Z,128.70
2017-12-20T03:39:06.797Z,125.60
2017-12-20T03:40:07.610Z,126.60
2017-12-20T03:42:01.181Z,134.10
2017-12-20T03:43:01.203Z,126.10
2017-12-20T03:44:53.823Z,137.90
2017-12-20T03:45:54.724Z,143.90
2017-12-20T03:47:48.330Z,142.30
2017-12-20T03:48:48.231Z,160.80
2017-12-20T03:50:41.027Z,163.40
2017-12-20T03:51:39.854Z,161.20
2017-12-20T03:53:35.415Z,192.70
2017-12-20T03:54:34.535Z,191.70
2017-12-20T03:56:27.919Z,193.40
2017-12-20T03:57:28.981Z,219.30
2017-12-20T03:59:22.519Z,194.70
2017-12-20T04:00:22.562Z,186.30
2017-12-20T04:02:16.687Z,208.70
2017-12-20T04:03:16.133Z,230.20
2017-12-20T04:05:09.824Z,212.90
2017-12-20T04:06:09.639Z,209.80
2017-12-20T04:08:02.361Z,200.80
2017-12-20T04:09:03.196Z,206.30
2017-12-20T04:10:55.955Z,202.80
2017-12-20T04:11:56.742Z,204.70
2017-12-20T04:13:50.312Z,202.40
2017-12-20T04:14:50.309Z,191.10
2017-12-20T04:16:43.159Z,193.30
2017-12-20T04:17:43.846Z,189.70
2017-12-20T04:19:37.417Z,173.10
2017-12-20T04:20:37.429Z,178.60
2017-12-20T04:22:30.100Z,161.90
2017-12-20T04:23:30.971Z,184.30
2017-12-20T04:25:24.535Z,144.60
2017-12-20T04:26:24.548Z,140.00
2017-12-20T04:28:16.981Z,158.90
2017-12-20T04:29:18.092Z,155.80
2017-12-20T04:31:11.640Z,144.10
2017-12-20T04:32:11.652Z,146.90
2017-12-20T04:34:05.834Z,166.70
2017-12-20T04:35:05.215Z,154.20
2017-12-20T04:36:58.598Z,132.40
2017-12-20T04:37:58.799Z,128.80
2017-12-20T04:39:50.161Z,137.70
2017-12-20T04:40:52.318Z,141.30
2017-12-20T04:42:44.896Z,135.90
2017-12-20T04:43:45.937Z,129.40
2017-12-20T04:45:40.050Z,122.90
2017-12-20T04:46:39.491Z,122.20
2017-12-20T04:48:31.987Z,135.00
2017-12-20T04:49:33.006Z,137.40
2017-12-20T04:51:23.791Z,151.90
2017-12-20T04:52:24.576Z,139.10
2017-12-20T04:54:19.156Z,115.10
2017-12-20T04:55:20.186Z,107.30
2017-12-20T04:57:13.697Z,110.80
2017-12-20T04:58:13.707Z,97.10
2017-12-20T05:00:07.029Z,111.90
2017-12-20T05:01:07.302Z,98.10
2017-12-20T05:02:58.978Z,92.90
2017-12-20T05:04:00.814Z,88.70
2017-12-20T05:05:53.482Z,89.80
2017-12-20T05:06:54.388Z,93.30
2017-12-20T05:08:45.351Z,97.70
2017-12-20T05:09:46.028Z,89.50
2017-12-20T05:11:41.513Z,94.50
2017-12-20T05:12:41.491Z,89.00
2017-12-20T05:14:34.200Z,82.30
2017-12-20T05:15:35.100Z,77.10
2017-12-20T05:17:27.767Z,83.50
2017-12-20T05:18:28.610Z,83.50
2017-12-20T05:20:22.168Z,88.40
2017-12-20T05:21:22.166Z,86.50
2017-12-20T05:23:14.914Z,83.30
2017-12-20T05:24:15.741Z,81.40
2017-12-20T05:26:08.649Z,75.90
2017-12-20T05:27:09.297Z,71.70
2017-12-20T05:29:01.227Z,78.60
2017-12-20T05:30:02.842Z,79.20
2017-12-20T05:31:56.388Z,77.70
2017-12-20T05:32:56.438Z,81.00
2017-12-20T05:34:49.064Z,68.10
2017-12-20T05:35:49.973Z,74.30
2017-12-20T05:37:42.622Z,76.40
2017-12-20T05:38:43.511Z,78.90
2017-12-20T05:40:36.016Z,72.10
2017-12-20T05:41:37.074Z,75.90
2017-12-20T05:43:30.395Z,77.40
2017-12-20T05:44:30.623Z,78.60
2017-12-20T05:46:23.108Z,74.80
2017-12-20T05:47:24.185Z,74.40
2017-12-20T05:49:17.797Z,84.60
2017-12-20T05:50:17.741Z,80.70
2017-12-20T05:52:10.384Z,86.00
2017-12-20T05:53:11.349Z,83.50
2017-12-20T05:55:04.776Z,85.40
2017-12-20T05:56:04.854Z,82.40
2017-12-20T05:57:57.494Z,87.50
2017-12-20T05:58:58.407Z,94.30
2017-12-20T06:00:49.801Z,90.50
2017-12-20T06:01:51.961Z,92.10
2017-12-20T06:03:44.566Z,97.80
2017-12-20T06:04:45.519Z,97.20
2017-12-20T06:06:39.073Z,97.20
2017-12-20T06:07:39.098Z,100.60
2017-12-20T06:09:31.756Z,98.40
2017-12-20T06:10:32.623Z,103.60
2017-12-20T06:12:26.801Z,97.10
2017-12-20T06:13:26.190Z,103.60
2017-12-20T06:15:19.747Z,107.40
2017-12-20T06:16:19.787Z,106.00
2017-12-20T06:18:12.340Z,107.40
2017-12-20T06:19:13.391Z,104.00
2017-12-20T06:21:06.732Z,104.80
2017-12-20T06:22:06.870Z,103.80
2017-12-20T06:23:59.548Z,108.10
2017-12-20T06:25:00.458Z,102.70
2017-12-20T06:26:52.894Z,116.30
2017-12-20T06:27:53.979Z,106.60
2017-12-20T06:29:47.583Z,109.10
2017-12-20T06:30:47.577Z,109.70
2017-12-20T06:32:40.212Z,126.80
2017-12-20T06:33:41.128Z,125.70
2017-12-20T06:35:31.756Z,117.30
2017-12-20T06:36:34.782Z,120.60
2017-12-20T06:38:27.309Z,112.00
2017-12-20T06:39:28.257Z,110.10
2017-12-20T06:41:20.377Z,110.10
2017-12-20T06:42:21.793Z,103.40
2017-12-20T06:44:14.252Z,110.70
2017-12-20T06:45:15.224Z,107.90
2017-12-20T06:47:08.854Z,107.80
2017-12-20T06:48:08.923Z,102.60
2017-12-20T06:50:01.538Z,96.50
2017-12-20T06:51:02.423Z,102.60
2017-12-20T06:52:55.979Z,97.80
2017-12-20T06:53:56.023Z,94.60
2017-12-20T06:55:48.565Z,95.60
2017-12-20T06:56:49.564Z,96.70
2017-12-20T07:12:31.162Z,104.70
2017-12-20T07:13:31.938Z,113.50
2017-12-20T07:15:24.596Z,102.60
2017-12-20T07:16:22.871Z,104.30
2017-12-20T07:18:17.957Z,111.60
2017-12-20T07:19:19.048Z,101.40
2017-12-20T07:21:12.609Z,113.10
2017-12-20T07:22:12.643Z,115.90
2017-12-20T07:24:05.099Z,120.70
2017-12-20T07:25:06.181Z,117.80
2017-12-20T07:26:59.743Z,122.10
2017-12-20T07:27:59.746Z,121.00
2017-12-20T07:29:52.405Z,125.60
2017-12-20T07:30:53.276Z,127.40
2017-12-20T07:32:45.840Z,130.80
2017-12-20T07:33:44.218Z,131.80
2017-12-20T07:35:40.398Z,115.10
2017-12-20T07:36:40.444Z,132.40
2017-12-20T07:38:33.038Z,132.10
2017-12-20T07:39:33.961Z,134.50
2017-12-20T07:41:27.505Z,156.80
2017-12-20T07:42:27.508Z,144.60
2017-12-20T07:44:20.164Z,144.70
2017-12-20T07:45:21.064Z,150.50
2017-12-20T07:47:14.626Z,152.70
2017-12-20T07:48:14.645Z,155.40
2017-12-20T07:50:07.097Z,167.70
2017-12-20T07:51:05.563Z,152.90
2017-12-20T07:53:00.843Z,181.30
2017-12-20T07:54:01.742Z,168.60
2017-12-20T07:55:54.447Z,174.80
2017-12-20T07:56:55.308Z,172.60
2017-12-20T07:58:48.862Z,172.80
2017-12-20T07:59:48.873Z,175.00
2017-12-20T08:01:41.338Z,178.90
2017-12-20T08:02:42.420Z,178.60
2017-12-20T08:04:35.989Z,176.00
2017-12-20T08:05:35.982Z,191.90
2017-12-20T08:07:28.514Z,187.80
2017-12-20T08:08:26.909Z,199.30
2017-12-20T08:10:23.118Z,206.70
2017-12-20T08:11:23.122Z,201.80
2017-12-20T08:13:15.813Z,211.60
2017-12-20T08:14:16.712Z,208.10
2017-12-20T08:16:09.135Z,201.30
2017-12-20T08:17:10.233Z,203.50
2017-12-20T08:19:02.858Z,187.30
2017-12-20T08:20:03.767Z,208.50
2017-12-20T08:21:57.333Z,183.10
2017-12-20T08:22:57.341Z,178.50
2017-12-20T08:24:49.884Z,166.30
2017-12-20T08:25:50.372Z,184.20
2017-12-20T08:27:45.400Z,179.70
2017-12-20T08:28:44.546Z,179.50
2017-12-20T08:30:37.010Z,167.70
2017-12-20T08:31:38.026Z,175.90
2017-12-20T08:33:31.496Z,166.00
2017-12-20T08:34:31.556Z,163.00
2017-12-20T08:36:24.255Z,170.00
2017-12-20T08:37:25.115Z,159.50
2017-12-20T08:39:17.724Z,167.10
2017-12-20T08:40:18.724Z,182.50
2017-12-20T08:42:12.251Z,142.10
2017-12-20T08:43:09.613Z,141.00
2017-12-20T08:45:04.919Z,158.00
2017-12-20T08:46:04.946Z,165.30
2017-12-20T08:47:58.480Z,161.00
2017-12-20T08:48:59.384Z,151.10
2017-12-20T08:50:52.822Z,150.80
2017-12-20T08:51:52.949Z,162.30
2017-12-20T08:54:06.695Z,156.40
2017-12-20T08:54:46.507Z,158.40
2017-12-20T08:56:40.980Z,157.40
2017-12-20T08:57:40.058Z,170.00
2017-12-20T08:59:32.724Z,152.30
2017-12-20T09:00:33.604Z,160.50
2017-12-20T09:02:27.162Z,145.00
2017-12-20T09:03:27.172Z,144.60
2017-12-20T09:05:19.845Z,159.80
2017-12-20T09:06:20.716Z,150.30
2017-12-20T09:08:14.104Z,154.40
2017-12-20T09:09:14.294Z,158.20
2017-12-20T09:11:06.948Z,172.00
2017-12-20T09:12:07.863Z,161.60
2017-12-20T09:14:00.708Z,155.60
2017-12-20T09:15:01.395Z,160.90
2017-12-20T09:16:54.977Z,151.80
2017-12-20T09:17:54.942Z,161.90
2017-12-20T09:19:47.379Z,152.50
2017-12-20T09:20:48.527Z,174.10
2017-12-20T09:22:42.118Z,178.60
2017-12-20T09:23:42.062Z,175.80
2017-12-20T09:25:34.972Z,158.80
2017-12-20T09:26:35.656Z,165.60
2017-12-20T09:28:29.181Z,160.60
2017-12-20T09:29:29.169Z,159.00
2017-12-20T09:31:21.812Z,147.70
2017-12-20T09:32:22.797Z,152.30
2017-12-20T09:34:15.264Z,147.90
2017-12-20T09:35:16.328Z,141.10
2017-12-20T09:37:09.918Z,127.80
2017-12-20T09:38:09.862Z,132.80
2017-12-20T09:40:02.333Z,135.60
2017-12-20T09:41:03.407Z,142.60
2017-12-20T09:42:54.492Z,126.20
2017-12-20T09:43:56.963Z,125.50
2017-12-20T09:45:49.500Z,128.00
2017-12-20T09:46:50.541Z,121.70
2017-12-20T09:48:43.236Z,121.10
2017-12-20T09:49:44.080Z,127.80
2017-12-20T09:51:36.834Z,120.00
2017-12-20T09:52:35.653Z,124.00
2017-12-20T09:54:31.375Z,122.70
2017-12-20T09:55:31.221Z,126.30
2017-12-20T09:57:23.829Z,124.00
2017-12-20T09:58:24.775Z,127.20
2017-12-20T10:00:18.916Z,138.50
2017-12-20T10:01:18.313Z,130.60
2017-12-20T10:03:11.797Z,111.20
2017-12-20T10:04:11.914Z,119.30
2017-12-20T10:06:04.460Z,118.60
2017-12-20T10:07:05.440Z,116.60
2017-12-20T10:08:59.034Z,114.00
2017-12-20T10:09:58.984Z,119.00
2017-12-20T10:11:51.676Z,125.60
2017-12-20T10:12:52.579Z,125.90
2017-12-20T10:14:44.977Z,118.60
2017-12-20T10:15:46.146Z,113.80
2017-12-20T10:17:39.554Z,113.40
2017-12-20T10:18:39.699Z,123.60
2017-12-20T10:20:32.362Z,115.50
2017-12-20T10:21:33.220Z,111.20
2017-12-20T10:23:26.784Z,109.60
2017-12-20T10:24:26.831Z,111.10
2017-12-20T10:26:19.310Z,117.00
2017-12-20T10:27:20.344Z,119.70
2017-12-20T10:29:13.926Z,118.00
2017-12-20T10:30:13.957Z,110.90
2017-12-20T10:32:06.515Z,133.40
2017-12-20T10:33:07.487Z,123.40
2017-12-20T10:35:01.040Z,115.40
2017-12-20T10:36:01.017Z,114.80
2017-12-20T10:37:51.781Z,110.70
2017-12-20T10:38:54.649Z,126.60
2017-12-20T10:40:48.129Z,116.50
2017-12-20T10:41:48.146Z,106.70
2017-12-20T10:43:39.036Z,99.00
2017-12-20T10:44:41.679Z,115.60
2017-12-20T10:46:34.308Z,114.90
2017-12-20T10:47:35.279Z,110.40
2017-12-20T10:49:28.609Z,126.90
2017-12-20T10:50:28.887Z,124.60
2017-12-20T10:52:21.480Z,128.40
2017-12-20T10:53:22.353Z,127.00
2017-12-20T10:55:16.514Z,128.10
2017-12-20T10:56:15.920Z,127.00
2017-12-20T10:58:07.668Z,118.60
2017-12-20T10:59:09.479Z,117.10
2017-12-20T11:01:02.179Z,115.30
2017-12-20T11:02:03.019Z,110.50
2017-12-20T11:03:56.639Z,121.40
2017-12-20T11:04:56.599Z,122.50
2017-12-20T11:06:50.067Z,120.90
2017-12-20T11:07:50.207Z,122.20
2017-12-20T11:09:43.219Z,136.80
2017-12-20T11:10:43.801Z,130.00
2017-12-20T11:12:37.222Z,144.70
2017-12-20T11:13:37.311Z,144.80
2017-12-20T11:15:29.986Z,142.70
2017-12-20T11:16:30.970Z,140.60
2017-12-20T11:18:24.444Z,160.50
2017-12-20T11:19:24.393Z,161.70
2017-12-20T11:21:15.146Z,153.70
2017-12-20T11:22:18.001Z,158.20
2017-12-20T11:24:10.557Z,144.70
2017-12-20T11:25:11.515Z,140.70
2017-12-20T11:27:03.256Z,144.60
2017-12-20T11:28:05.150Z,147.20
2017-12-20T11:29:57.586Z,149.50
2017-12-20T11:30:58.643Z,162.40
2017-12-20T11:32:52.013Z,160.40
2017-12-20T11:33:52.195Z,165.00
2017-12-20T11:35:44.730Z,147.90
2017-12-20T11:36:45.834Z,146.70
2017-12-20T11:38:38.373Z,172.90
2017-12-20T11:39:39.419Z,177.40
2017-12-20T11:41:32.904Z,177.10
2017-12-20T11:42:32.853Z,159.90
2017-12-20T11:44:23.627Z,186.70
2017-12-20T11:45:26.419Z,187.70
2017-12-20T11:47:19.989Z,182.00
2017-12-20T11:48:19.149Z,184.60
2017-12-20T11:50:12.690Z,173.90
2017-12-20T11:51:13.518Z,182.70
2017-12-20T11:53:07.116Z,189.90
2017-12-20T11:54:07.101Z,202.20
2017-12-20T11:55:59.814Z,189.60
2017-12-20T11:57:01.537Z,183.40
2017-12-20T11:58:54.292Z,185.30
2017-12-20T11:59:54.194Z,185.40
2017-12-20T12:01:44.953Z,190.00
2017-12-20T12:02:47.782Z,180.10
2017-12-20T12:04:40.445Z,187.30
2017-12-20T12:05:41.337Z,190.30
2017-12-20T12:07:33.978Z,190.10
2017-12-20T12:08:34.913Z,184.70
2017-12-20T12:10:28.527Z,175.60
2017-12-20T12:11:28.429Z,176.20
2017-12-20T12:13:21.151Z,174.60
2017-12-20T12:14:20.170Z,179.60
2017-12-20T12:16:15.534Z,178.00
2017-12-20T12:17:15.592Z,176.90
2017-12-20T12:19:08.220Z,159.40
2017-12-20T12:20:09.126Z,155.20
2017-12-20T12:22:02.732Z,164.60
2017-12-20T12:23:02.751Z,152.50
2017-12-20T12:24:55.415Z,160.70
2017-12-20T12:25:56.265Z,147.50
2017-12-20T12:27:49.873Z,159.50
2017-12-20T12:28:49.831Z,150.30
2017-12-20T12:30:42.515Z,156.50
2017-12-20T12:31:42.790Z,138.00
2017-12-20T12:33:36.042Z,140.10
2017-12-20T12:34:36.963Z,156.10
2017-12-20T12:36:30.530Z,140.40
2017-12-20T12:37:30.473Z,133.70
2017-12-20T12:39:23.071Z,138.20
2017-12-20T12:40:23.594Z,137.40
2017-12-20T12:42:17.687Z,128.50
2017-12-20T12:43:17.587Z,136.00
2017-12-20T12:45:11.817Z,129.50
2017-12-20T12:46:11.207Z,144.60
2017-12-20T12:48:04.774Z,135.40
2017-12-20T12:49:02.059Z,140.10
2017-12-20T12:50:57.205Z,137.30
2017-12-20T12:51:58.295Z,134.10
2017-12-20T12:53:51.835Z,144.20
2017-12-20T12:54:51.889Z,149.60
2017-12-20T12:56:46.020Z,145.30
2017-12-20T12:57:45.375Z,137.20
2017-12-20T12:59:39.538Z,138.70
2017-12-20T13:00:38.995Z,138.60
2017-12-20T13:02:31.507Z,143.00
2017-12-20T13:03:32.551Z,132.40
2017-12-20T13:05:26.087Z,136.30
2017-12-20T13:06:26.066Z,134.20
2017-12-20T13:08:18.709Z,159.20
2017-12-20T13:09:19.704Z,156.70
2017-12-20T13:11:13.165Z,136.50
2017-12-20T13:12:13.171Z,135.40
2017-12-20T13:14:04.553Z,141.00
2017-12-20T13:15:06.753Z,137.80
2017-12-20T13:17:00.294Z,135.60
2017-12-20T13:18:00.412Z,135.00
2017-12-20T13:19:53.023Z,142.40
2017-12-20T13:20:53.890Z,140.40
2017-12-20T13:22:47.449Z,141.70
2017-12-20T13:23:47.466Z,150.50
2017-12-20T13:25:40.477Z,147.00
2017-12-20T13:26:40.995Z,154.30
2017-12-20T13:28:31.653Z,127.10
2017-12-20T13:29:33.863Z,128.50
2017-12-20T13:31:27.231Z,144.40
2017-12-20T13:32:28.115Z,145.50
2017-12-20T13:34:21.661Z,147.40
2017-12-20T13:35:21.823Z,138.60
2017-12-20T13:37:14.358Z,134.60
2017-12-20T13:38:15.210Z,134.20
2017-12-20T13:40:07.914Z,126.70
2017-12-20T13:41:08.741Z,127.90
2017-12-20T13:43:02.336Z,122.70
2017-12-20T13:44:02.353Z,127.20
2017-12-20T13:45:55.001Z,124.30
2017-12-20T13:46:55.925Z,130.60
2017-12-20T13:48:47.283Z,144.40
2017-12-20T13:49:49.448Z,137.00
2017-12-20T13:51:41.981Z,136.10
2017-12-20T13:52:43.025Z,131.90
2017-12-20T13:54:36.527Z,150.00
2017-12-20T13:55:36.575Z,148.30
2017-12-20T13:57:29.256Z,154.40
2017-12-20T13:58:30.107Z,158.40
2017-12-20T14:00:23.701Z,151.00
2017-12-20T14:01:23.711Z,146.20
2017-12-20T14:03:16.290Z,160.80
2017-12-20T14:04:17.376Z,154.30
2017-12-20T14:06:09.346Z,144.10
2017-12-20T14:07:10.797Z,161.60
2017-12-20T14:09:03.439Z,181.00
2017-12-20T14:10:04.389Z,177.40
2017-12-20T14:11:57.916Z,177.10
2017-12-20T14:12:57.895Z,177.80
2017-12-20T14:14:48.672Z,189.00
2017-12-20T14:15:51.525Z,189.40
2017-12-20T14:17:44.908Z,192.10
2017-12-20T14:19:57.553Z,167.90
2017-12-20T14:20:58.404Z,168.40
2017-12-20T14:22:52.046Z,176.30
2017-12-20T14:23:51.975Z,172.90
2017-12-20T14:25:44.599Z,195.10
2017-12-20T14:26:45.699Z,178.60
2017-12-20T14:28:39.109Z,159.90
2017-12-20T14:29:39.142Z,162.10
2017-12-20T14:31:31.613Z,165.10
2017-12-20T14:32:32.638Z,165.70
2017-12-20T14:34:26.272Z,167.20
2017-12-20T14:35:26.260Z,162.90
2017-12-20T14:37:20.423Z,173.30
2017-12-20T14:38:19.829Z,163.90
2017-12-20T14:40:12.268Z,164.20
2017-12-20T14:41:13.352Z,157.20
2017-12-20T14:43:06.879Z,160.50
2017-12-20T14:44:06.886Z,163.40
2017-12-20T14:45:59.570Z,149.70
2017-12-20T14:47:00.449Z,150.70
2017-12-20T14:48:53.476Z,164.70
2017-12-20T14:49:54.040Z,159.20
2017-12-20T14:51:47.589Z,137.20
2017-12-20T14:52:47.576Z,145.80
2017-12-20T14:54:41.741Z,158.50
2017-12-20T14:55:41.115Z,169.30
2017-12-20T14:57:34.664Z,160.70
2017-12-20T14:58:34.688Z,160.30
2017-12-20T15:00:27.345Z,155.50
2017-12-20T15:01:28.255Z,155.70
2017-12-20T15:03:19.624Z,154.10
2017-12-20T15:04:21.835Z,148.50
2017-12-20T15:06:14.477Z,159.20
2017-12-20T15:07:15.356Z,161.00
2017-12-20T15:09:08.979Z,136.60
2017-12-20T15:10:08.951Z,118.20
2017-12-20T15:12:00.143Z,140.70
2017-12-20T15:13:02.500Z,133.80
2017-12-20T15:14:55.099Z,129.30
2017-12-20T15:15:56.011Z,128.80
2017-12-20T15:17:48.734Z,126.60
2017-12-20T15:18:49.577Z,128.60
2017-12-20T15:20:40.924Z,127.30
2017-12-20T15:21:43.170Z,124.60
2017-12-20T15:23:35.889Z,143.10
2017-12-20T15:24:36.688Z,145.80
2017-12-20T15:26:30.260Z,152.50
2017-12-20T15:27:30.287Z,153.50
2017-12-20T15:29:22.968Z,158.80
2017-12-20T15:30:23.843Z,160.90
2017-12-20T15:32:17.369Z,158.80
2017-12-20T15:33:17.371Z,150.70
2017-12-20T15:35:10.066Z,157.80
2017-12-20T15:36:10.930Z,163.30
2017-12-20T15:38:02.209Z,157.00
2017-12-20T15:39:04.509Z,146.70
2017-12-20T15:40:57.210Z,141.20
2017-12-20T15:41:58.048Z,141.20
2017-12-20T15:43:51.668Z,146.50
2017-12-20T15:44:51.609Z,156.60
2017-12-20T15:46:44.031Z,163.70
2017-12-20T15:47:45.160Z,159.20
2017-12-20T15:49:37.843Z,150.10
2017-12-20T15:50:38.767Z,139.30
2017-12-20T15:52:31.491Z,145.10
2017-12-20T15:53:32.270Z,146.00
2017-12-20T15:55:22.979Z,148.70
2017-12-20T15:56:25.737Z,139.20
2017-12-20T15:58:18.500Z,138.80
2017-12-20T15:59:19.404Z,138.80
2017-12-20T16:01:12.983Z,139.60
2017-12-20T16:02:12.986Z,139.20
2017-12-20T16:04:05.652Z,139.30
2017-12-20T16:05:06.536Z,131.50
2017-12-20T16:06:59.220Z,128.40
2017-12-20T16:08:00.102Z,142.60
2017-12-20T16:09:53.599Z,138.40
2017-12-20T16:10:53.675Z,142.30
2017-12-20T16:12:44.441Z,160.50
2017-12-20T16:13:47.251Z,159.90
2017-12-20T16:15:40.798Z,177.60
2017-12-20T16:16:40.762Z,169.50
2017-12-20T16:18:33.464Z,185.20
2017-12-20T16:19:34.301Z,202.50
2017-12-20T16:21:27.912Z,211.20
2017-12-20T16:22:27.889Z,200.70
2017-12-20T16:24:20.768Z,205.80
2017-12-20T16:25:19.539Z,193.40
2017-12-20T16:27:14.982Z,176.40
2017-12-20T16:28:14.978Z,180.80
2017-12-20T16:30:05.754Z,194.70
2017-12-20T16:31:08.559Z,207.60
2017-12-20T16:33:02.174Z,216.00
2017-12-20T16:34:01.365Z,206.00
2017-12-20T16:35:54.784Z,237.00
2017-12-20T16:36:55.703Z,243.50
2017-12-20T16:38:49.258Z,237.20
2017-12-20T16:39:49.230Z,241.20
2017-12-20T16:41:41.912Z,241.50
2017-12-20T16:42:42.770Z,212.50
2017-12-20T16:44:36.396Z,236.40
2017-12-20T16:45:36.425Z,218.10
2017-12-20T16:47:28.122Z,243.20
2017-12-20T16:48:29.891Z,225.50
2017-12-20T16:50:23.485Z,232.50
2017-12-20T16:51:23.439Z,235.60
2017-12-20T16:53:15.806Z,246.40
2017-12-20T16:54:17.006Z,254.50
2017-12-20T16:56:10.551Z,238.40
2017-12-20T16:57:10.574Z,251.60
2017-12-20T16:59:03.249Z,266.30
2017-12-20T17:00:02.326Z,275.40
2017-12-20T17:01:57.732Z,263.50
2017-12-20T17:02:57.702Z,270.90
2017-12-20T17:04:50.324Z,242.40
2017-12-20T17:05:51.241Z,223.00
2017-12-20T17:07:43.690Z,229.00
2017-12-20T17:08:44.859Z,233.80
2017-12-20T17:10:37.481Z,221.80
2017-12-20T17:11:38.352Z,220.10
2017-12-20T17:13:31.076Z,229.90
2017-12-20T17:14:31.951Z,236.90
2017-12-20T17:16:24.596Z,249.70
2017-12-20T17:17:24.848Z,267.40
2017-12-20T17:19:18.934Z,240.30
2017-12-20T17:20:19.085Z,254.00
2017-12-20T17:22:13.213Z,248.70
2017-12-20T17:23:12.601Z,268.70
2017-12-20T17:25:05.305Z,252.20
2017-12-20T17:26:06.216Z,254.90
2017-12-20T17:27:59.522Z,253.80
2017-12-20T17:29:00.596Z,254.30
2017-12-20T17:30:52.560Z,238.30
2017-12-20T17:31:53.306Z,202.50
2017-12-20T17:33:46.821Z,241.70
2017-12-20T17:34:44.231Z,224.80
2017-12-20T17:36:39.501Z,241.10
2017-12-20T17:37:40.418Z,223.40
2017-12-20T17:39:33.756Z,229.20
2017-12-20T17:40:33.979Z,209.30
2017-12-20T17:42:26.451Z,207.30
2017-12-20T17:43:27.492Z,211.70
2017-12-20T17:45:21.085Z,226.60
2017-12-20T17:46:21.119Z,235.50
2017-12-20T17:48:13.763Z,235.00
2017-12-20T17:49:14.617Z,249.30
2017-12-20T17:51:07.951Z,276.90
2017-12-20T17:52:05.494Z,272.40
2017-12-20T17:54:00.862Z,272.40
2017-12-20T17:56:15.174Z,310.00
2017-12-20T17:57:12.705Z,320.40
2017-12-20T17:59:07.741Z,310.00
2017-12-20T18:00:08.691Z,303.50
2017-12-20T18:02:02.291Z,285.60
2017-12-20T18:03:02.312Z,284.60
2017-12-20T18:04:54.949Z,253.90
2017-12-20T18:05:55.852Z,251.60
2017-12-20T18:07:48.502Z,237.90
2017-12-20T18:08:49.435Z,206.90
2017-12-20T18:10:42.971Z,224.20
2017-12-20T18:11:42.937Z,227.80
2017-12-20T18:13:35.644Z,242.90
2017-12-20T18:14:36.484Z,240.40
2017-12-20T18:16:30.099Z,234.30
2017-12-20T18:17:30.042Z,228.50
2017-12-20T18:19:24.193Z,220.10
2017-12-20T18:20:23.795Z,222.30
2017-12-20T18:22:16.167Z,207.40
2017-12-20T18:23:17.149Z,215.50
2017-12-20T18:25:10.639Z,201.40
2017-12-20T18:26:10.712Z,211.00
2017-12-20T18:28:03.402Z,201.30
2017-12-20T18:29:05.211Z,221.20
2017-12-20T18:30:58.828Z,184.90
2017-12-20T18:31:58.818Z,206.20
2017-12-20T18:33:51.522Z,211.20
2017-12-20T18:34:52.432Z,205.20
2017-12-20T18:36:45.804Z,200.00
2017-12-20T18:37:45.986Z,209.70
2017-12-20T18:39:38.635Z,188.20
2017-12-20T18:40:39.489Z,199.60
2017-12-20T18:42:33.170Z,187.60
2017-12-20T18:43:33.066Z,187.90
2017-12-20T18:45:23.886Z,189.50
2017-12-20T18:46:26.609Z,205.90